Time;durP1;ratioP1;P1;durP2;ratioP2;P2;SDS_P1;SDS_P2;PMS_P1;PMS_P2;Temp;Humidity;BMP_temperature;BMP_pressure;BME280_temperature;BME280_humidity;BME280_pressure;Samples;Min_cycle;Max_cycle;Signal;HPM_P1;HPM_P2
2022/05/11 00:00:14;;;;;;;7.20;6.28;;;17.80;99.90;;;;;;5029082;28;20183;-86
2022/05/11 00:02:40;;;;;;;7.75;6.68;;;17.70;99.90;;;;;;5030043;28;20198;-86
2022/05/11 00:05:09;;;;;;;7.38;6.68;;;17.70;99.90;;;;;;5044469;28;20265;-86
2022/05/11 00:07:34;;;;;;;8.43;7.28;;;17.70;99.90;;;;;;5045768;28;20179;-84
2022/05/11 00:10:01;;;;;;;7.90;6.82;;;17.60;99.90;;;;;;5046077;28;20187;-85
2022/05/11 00:12:26;;;;;;;7.90;7.20;;;17.60;99.90;;;;;;5043948;28;20210;-83
2022/05/11 00:14:52;;;;;;;8.70;6.97;;;17.50;99.90;;;;;;5042609;28;20229;-83
2022/05/11 00:17:18;;;;;;;9.07;7.20;;;17.50;99.90;;;;;;5041905;28;20209;-82
2022/05/11 00:19:44;;;;;;;7.60;6.90;;;17.30;99.90;;;;;;5045892;28;20591;-85
2022/05/11 00:22:10;;;;;;;9.13;7.40;;;17.20;99.90;;;;;;5045310;28;20207;-87
2022/05/11 00:24:36;;;;;;;7.63;6.80;;;17.00;99.90;;;;;;5045393;28;20206;-85
2022/05/11 00:27:02;;;;;;;9.05;6.72;;;17.00;99.90;;;;;;5044726;28;20205;-87
2022/05/11 00:29:28;;;;;;;8.43;7.53;;;17.00;99.90;;;;;;5046119;28;20183;-86
2022/05/11 00:31:54;;;;;;;8.57;6.75;;;17.00;99.90;;;;;;5045289;28;20340;-83
2022/05/11 00:34:20;;;;;;;8.43;7.10;;;16.90;99.90;;;;;;5045679;28;20266;-82
2022/05/11 00:36:46;;;;;;;9.82;8.10;;;17.00;99.90;;;;;;5045159;28;20531;-87
2022/05/11 00:39:12;;;;;;;9.20;8.07;;;16.90;99.90;;;;;;5045137;28;20680;-84
2022/05/11 00:41:42;;;;;;;8.23;7.43;;;16.90;99.90;;;;;;5029561;28;20175;-86
2022/05/11 00:44:09;;;;;;;8.07;7.25;;;16.90;99.90;;;;;;5044212;28;20203;-85
2022/05/11 00:46:42;;;;;;;9.13;7.63;;;16.90;99.90;;;;;;5043932;28;20186;-82
2022/05/11 00:49:36;;;;;;;7.95;7.18;;;17.00;99.90;;;;;;5045093;28;20203;-85
2022/05/11 00:52:10;;;;;;;8.60;7.55;;;16.90;99.90;;;;;;5027513;28;20241;-87
2022/05/11 00:54:51;;;;;;;9.00;8.13;;;16.90;99.90;;;;;;5043461;28;20280;-81
2022/05/11 00:57:29;;;;;;;8.15;7.32;;;16.90;99.90;;;;;;5026064;28;20199;-80
2022/05/11 00:59:54;;;;;;;8.30;7.60;;;16.90;99.90;;;;;;5045100;28;20261;-84
2022/05/11 01:02:22;;;;;;;9.00;8.10;;;16.80;99.90;;;;;;5026074;28;20294;-82
2022/05/11 01:04:50;;;;;;;10.35;8.05;;;16.70;99.90;;;;;;5042656;28;20215;-80
2022/05/11 01:07:16;;;;;;;11.88;8.25;;;16.60;99.90;;;;;;5027600;28;20269;-83
2022/05/11 01:09:42;;;;;;;8.68;7.85;;;16.70;99.90;;;;;;5042632;28;20286;-83
2022/05/11 01:12:17;;;;;;;10.70;8.07;;;16.70;99.90;;;;;;5026824;28;20631;-81
2022/05/11 01:14:46;;;;;;;9.05;8.02;;;16.70;99.90;;;;;;5042571;28;20305;-83
2022/05/11 01:17:12;;;;;;;9.65;8.35;;;16.60;99.90;;;;;;5046217;28;21346;-82
2022/05/11 01:19:44;;;;;;;9.88;8.88;;;16.60;99.90;;;;;;5042670;28;20237;-82
2022/05/11 01:22:29;;;;;;;10.07;8.60;;;16.50;99.90;;;;;;5028172;28;20755;-83
2022/05/11 01:24:54;;;;;;;10.20;9.05;;;16.40;99.90;;;;;;5044330;28;20189;-81
2022/05/11 01:27:33;;;;;;;10.13;9.10;;;16.40;99.90;;;;;;5044269;28;20183;-83
2022/05/11 01:30:06;;;;;;;10.50;9.50;;;16.40;99.90;;;;;;5044201;28;20244;-82
2022/05/11 01:32:32;;;;;;;11.15;8.82;;;16.30;99.90;;;;;;5043383;28;20214;-85
2022/05/11 01:35:18;;;;;;;13.95;9.50;;;16.30;99.90;;;;;;5027568;28;20535;-80
2022/05/11 01:37:59;;;;;;;13.40;10.43;;;16.20;99.90;;;;;;5043781;28;20587;-83
2022/05/11 01:40:25;;;;;;;11.40;9.07;;;16.20;99.90;;;;;;5042629;28;20189;-81
2022/05/11 01:42:50;;;;;;;10.90;9.25;;;16.30;99.90;;;;;;5027625;28;20207;-83
2022/05/11 01:45:16;;;;;;;11.00;9.45;;;16.30;99.90;;;;;;5042845;28;20189;-80
2022/05/11 01:47:42;;;;;;;11.60;9.32;;;16.40;99.90;;;;;;5042893;28;20191;-83
2022/05/11 01:50:08;;;;;;;11.05;9.77;;;16.40;99.90;;;;;;5042623;28;20182;-81
2022/05/11 01:52:34;;;;;;;10.20;9.05;;;16.40;99.90;;;;;;5026947;28;20780;-84
2022/05/11 01:54:59;;;;;;;10.70;9.48;;;16.40;99.90;;;;;;5042278;28;20274;-81
2022/05/11 01:57:25;;;;;;;10.25;9.18;;;16.40;99.90;;;;;;5027010;28;20186;-83
2022/05/11 01:59:50;;;;;;;10.45;9.38;;;16.40;99.90;;;;;;5042161;28;20602;-82
2022/05/11 02:02:16;;;;;;;10.05;9.13;;;16.30;99.90;;;;;;5042491;28;20230;-80
2022/05/11 02:10:10;;;;;;;10.30;9.15;;;16.30;99.90;;;;;;5026694;28;20241;-83
2022/05/11 02:12:36;;;;;;;12.88;9.43;;;16.20;99.90;;;;;;5040986;28;20700;-82
2022/05/11 02:15:04;;;;;;;10.57;9.48;;;16.30;99.90;;;;;;5042225;28;20660;-85
2022/05/11 02:17:29;;;;;;;12.75;9.88;;;16.20;99.90;;;;;;5041834;28;20179;-83
2022/05/11 02:19:55;;;;;;;10.80;9.70;;;16.20;99.90;;;;;;5025754;28;21142;-81
2022/05/11 02:22:20;;;;;;;12.00;10.40;;;16.20;99.90;;;;;;5027014;28;20636;-78
2022/05/11 02:24:46;;;;;;;11.27;10.07;;;16.20;99.90;;;;;;5043282;28;20189;-83
2022/05/11 02:27:12;;;;;;;10.80;9.70;;;16.20;99.90;;;;;;5042481;28;20657;-83
2022/05/11 02:29:37;;;;;;;13.43;10.40;;;16.20;99.90;;;;;;5046974;28;20632;-79
2022/05/11 02:32:03;;;;;;;12.68;9.85;;;16.10;99.90;;;;;;5046535;28;20648;-81
2022/05/11 02:37:13;;;;;;;11.60;10.50;;;16.00;99.90;;;;;;5031048;28;20237;-84
2022/05/11 02:39:39;;;;;;;13.50;10.77;;;16.00;99.90;;;;;;5033380;28;20183;-81
2022/05/11 02:42:04;;;;;;;11.65;10.57;;;16.00;99.90;;;;;;5052015;28;20185;-82
2022/05/11 02:44:30;;;;;;;12.48;11.20;;;16.00;99.90;;;;;;5047041;28;20186;-82
2022/05/11 02:46:56;;;;;;;12.82;11.05;;;16.00;99.90;;;;;;5046694;28;20210;-81
2022/05/11 02:49:22;;;;;;;11.95;10.70;;;15.90;99.90;;;;;;5047525;28;20219;-83
2022/05/11 02:51:47;;;;;;;12.55;11.07;;;15.90;99.90;;;;;;5045871;28;20252;-82
2022/05/11 02:54:13;;;;;;;12.20;10.90;;;15.90;99.90;;;;;;5046467;28;20179;-81
2022/05/11 02:56:39;;;;;;;13.23;11.02;;;16.00;99.90;;;;;;5030780;28;20182;-82
2022/05/11 02:59:04;;;;;;;12.75;10.73;;;16.00;99.90;;;;;;5045556;28;20260;-82
2022/05/11 03:01:30;;;;;;;12.15;10.90;;;16.00;99.90;;;;;;5046029;28;20707;-81
2022/05/11 03:03:57;;;;;;;13.15;11.50;;;15.90;99.90;;;;;;5055593;28;20214;-80
2022/05/11 03:06:22;;;;;;;12.55;11.25;;;15.90;99.90;;;;;;5063224;28;20197;-80
2022/05/11 03:08:48;;;;;;;12.25;10.93;;;15.90;99.90;;;;;;5064189;28;20210;-80
2022/05/11 03:11:14;;;;;;;12.07;10.73;;;15.90;99.90;;;;;;5062865;28;20197;-83
2022/05/11 03:13:39;;;;;;;13.32;11.50;;;15.90;99.90;;;;;;5049164;28;20203;-80
2022/05/11 03:16:05;;;;;;;14.00;12.52;;;15.90;99.90;;;;;;5064101;28;20202;-79
2022/05/11 03:18:31;;;;;;;13.07;11.65;;;16.00;99.90;;;;;;5064370;28;20215;-81
2022/05/11 03:20:58;;;;;;;14.57;13.00;;;15.90;99.90;;;;;;5063898;28;20179;-79
2022/05/11 03:23:25;;;;;;;13.13;11.82;;;15.90;99.90;;;;;;5063654;28;20203;-79
2022/05/11 03:25:51;;;;;;;14.18;12.43;;;15.80;99.90;;;;;;5063986;28;20202;-80
2022/05/11 03:28:16;;;;;;;13.90;11.93;;;15.70;99.90;;;;;;5063701;28;20187;-81
2022/05/11 03:30:42;;;;;;;14.02;12.10;;;15.70;99.90;;;;;;5064383;28;20193;-79
2022/05/11 03:35:52;;;;;;;13.07;11.77;;;15.70;99.90;;;;;;5048499;28;20194;-78
2022/05/11 03:38:18;;;;;;;13.63;12.23;;;15.80;99.90;;;;;;5048320;28;20187;-79
2022/05/11 03:40:43;;;;;;;13.52;11.93;;;15.70;99.90;;;;;;5047095;28;20221;-79
2022/05/11 03:43:09;;;;;;;15.43;12.40;;;15.70;99.90;;;;;;5048362;28;20551;-79
2022/05/11 03:45:35;;;;;;;14.05;12.18;;;15.70;99.90;;;;;;5063630;28;20207;-80
2022/05/11 03:48:00;;;;;;;13.82;12.40;;;15.70;99.90;;;;;;5050859;28;20183;-84
2022/05/11 03:50:26;;;;;;;14.65;13.02;;;15.60;99.90;;;;;;5035187;28;20774;-83
2022/05/11 03:52:54;;;;;;;14.90;13.07;;;15.60;99.90;;;;;;5050715;28;20685;-82
2022/05/11 03:55:21;;;;;;;13.63;12.15;;;15.70;99.90;;;;;;5035319;28;20179;-86
2022/05/11 03:57:47;;;;;;;13.90;11.43;;;15.70;99.90;;;;;;5049797;28;20244;-86
2022/05/11 04:00:16;;;;;;;13.55;12.15;;;15.70;99.90;;;;;;5050478;28;20214;-84
2022/05/11 04:02:42;;;;;;;13.15;11.75;;;15.70;99.90;;;;;;5033560;28;20218;-88
2022/05/11 04:05:09;;;;;;;14.63;12.63;;;15.80;99.90;;;;;;5047318;28;20183;-87
2022/05/11 04:07:35;;;;;;;13.60;11.85;;;15.80;99.90;;;;;;5047585;28;20183;-84
2022/05/11 04:10:01;;;;;;;14.80;12.52;;;15.70;99.90;;;;;;5047652;28;20684;-86
2022/05/11 04:12:29;;;;;;;14.13;11.90;;;15.70;99.90;;;;;;5048074;28;20348;-84
2022/05/11 04:14:55;;;;;;;14.85;13.07;;;15.80;99.90;;;;;;5048190;28;20210;-84
2022/05/11 04:17:21;;;;;;;15.50;12.65;;;15.70;99.90;;;;;;5046653;28;20178;-85
2022/05/11 04:19:47;;;;;;;14.80;12.82;;;15.60;99.90;;;;;;5047572;28;20193;-87
2022/05/11 04:22:12;;;;;;;17.00;12.80;;;15.60;99.90;;;;;;5047910;28;20580;-88
2022/05/11 04:24:38;;;;;;;15.80;13.13;;;15.60;99.90;;;;;;5047315;28;20222;-82
2022/05/11 04:27:05;;;;;;;15.85;13.07;;;15.60;99.90;;;;;;5047124;28;20190;-86
2022/05/11 04:29:30;;;;;;;14.10;12.60;;;15.50;99.90;;;;;;5047158;28;20198;-88
2022/05/11 04:31:56;;;;;;;15.13;13.50;;;15.50;99.90;;;;;;5046694;28;20285;-85
2022/05/11 04:34:23;;;;;;;15.57;13.05;;;15.60;99.90;;;;;;5032298;28;20184;-85
2022/05/11 04:36:49;;;;;;;17.10;12.82;;;15.60;99.90;;;;;;5030756;28;20179;-85
2022/05/11 04:39:14;;;;;;;14.93;13.10;;;15.70;99.90;;;;;;5046891;28;20185;-88
2022/05/11 04:41:41;;;;;;;15.40;13.65;;;15.70;99.90;;;;;;5031587;28;20189;-80
2022/05/11 04:44:06;;;;;;;14.63;12.95;;;15.70;99.90;;;;;;5032365;28;20333;-86
2022/05/11 04:46:33;;;;;;;15.32;13.80;;;15.70;99.90;;;;;;5046661;28;20630;-88
2022/05/11 04:51:49;;;;;;;16.77;13.90;;;15.70;99.90;;;;;;5030234;28;20206;-88
2022/05/11 04:54:15;;;;;;;15.13;13.63;;;15.70;99.90;;;;;;5029770;28;20548;-85
2022/05/11 04:56:41;;;;;;;15.60;13.93;;;15.80;99.90;;;;;;5030444;28;20213;-86
2022/05/11 04:59:08;;;;;;;16.70;14.70;;;15.90;99.90;;;;;;5047020;28;20205;-85
2022/05/11 05:01:34;;;;;;;15.68;13.18;;;15.90;99.90;;;;;;5044437;28;21232;-82
2022/05/11 05:04:01;;;;;;;17.27;13.88;;;16.10;99.90;;;;;;5031020;28;20222;-87
2022/05/11 05:06:28;;;;;;;15.68;13.40;;;16.20;99.90;;;;;;5046257;28;20214;-88
2022/05/11 05:08:55;;;;;;;15.77;13.10;;;16.30;99.90;;;;;;5045387;28;20183;-84
2022/05/11 05:11:21;;;;;;;16.25;13.38;;;16.40;99.90;;;;;;5046859;28;20236;-82
2022/05/11 05:13:46;;;;;;;15.38;13.45;;;16.50;99.90;;;;;;5046738;28;20315;-85
2022/05/11 05:16:12;;;;;;;17.20;13.05;;;16.50;99.90;;;;;;5030532;28;20258;-83
2022/05/11 05:18:38;;;;;;;15.07;13.55;;;16.60;99.90;;;;;;5046040;28;20266;-86
2022/05/11 05:21:03;;;;;;;14.50;13.00;;;16.70;99.90;;;;;;5046864;28;20186;-86
2022/05/11 05:23:29;;;;;;;13.98;12.60;;;16.80;99.90;;;;;;5046852;28;20198;-87
2022/05/11 05:25:54;;;;;;;14.40;12.73;;;16.90;99.90;;;;;;5045992;28;20179;-86
2022/05/11 05:31:11;;;;;;;14.15;12.75;;;17.00;99.90;;;;;;5029497;28;20190;-85
2022/05/11 05:33:39;;;;;;;14.93;13.00;;;17.10;99.90;;;;;;5043630;28;20199;-84
2022/05/11 05:36:05;;;;;;;14.75;11.80;;;17.20;99.90;;;;;;5042862;28;20182;-84
2022/05/11 05:38:30;;;;;;;13.35;11.75;;;17.30;99.90;;;;;;5041399;28;20240;-85
2022/05/11 05:40:56;;;;;;;14.95;12.50;;;17.40;99.90;;;;;;5041626;28;20183;-82
2022/05/11 05:43:23;;;;;;;13.43;11.50;;;17.50;99.90;;;;;;5044055;28;20227;-86
2022/05/11 05:45:53;;;;;;;12.32;11.13;;;17.60;99.90;;;;;;5042636;28;20186;-85
2022/05/11 05:48:20;;;;;;;13.30;11.88;;;17.60;99.90;;;;;;5026642;28;20186;-86
2022/05/11 05:50:48;;;;;;;13.52;12.15;;;17.70;99.90;;;;;;5042192;28;20187;-85
2022/05/11 05:53:19;;;;;;;12.73;11.40;;;17.90;99.90;;;;;;5042096;28;20211;-85
2022/05/11 05:55:49;;;;;;;12.70;11.18;;;18.20;99.90;;;;;;5040655;28;20198;-85
2022/05/11 05:58:17;;;;;;;12.98;11.68;;;18.40;99.90;;;;;;5041608;28;20545;-86
2022/05/11 06:00:44;;;;;;;11.35;10.25;;;18.60;99.90;;;;;;5029010;28;20179;-85
2022/05/11 06:03:12;;;;;;;12.48;10.93;;;18.70;99.90;;;;;;5028152;28;20210;-86
2022/05/11 06:05:38;;;;;;;12.93;10.60;;;18.90;99.90;;;;;;5028097;28;20190;-86
2022/05/11 06:08:04;;;;;;;12.23;11.02;;;18.80;99.90;;;;;;5044919;28;20270;-84
2022/05/11 06:10:29;;;;;;;11.80;10.63;;;18.90;99.90;;;;;;5045261;28;20183;-84
2022/05/11 06:12:55;;;;;;;11.60;10.40;;;18.90;99.90;;;;;;5029857;28;20210;-84
2022/05/11 06:15:20;;;;;;;11.13;10.02;;;19.00;99.90;;;;;;5038806;28;20179;-83
2022/05/11 06:17:46;;;;;;;11.07;9.98;;;19.60;99.90;;;;;;5042990;28;20187;-84
2022/05/11 06:20:12;;;;;;;10.75;9.65;;;20.10;99.90;;;;;;5042219;28;20213;-85
2022/05/11 06:22:38;;;;;;;11.57;10.13;;;20.20;99.90;;;;;;5026609;28;20610;-84
2022/05/11 06:25:05;;;;;;;10.43;9.52;;;20.30;99.90;;;;;;5027790;28;20182;-85
2022/05/11 06:27:30;;;;;;;10.85;9.63;;;20.30;99.90;;;;;;5042303;28;20183;-84
2022/05/11 06:29:58;;;;;;;11.32;9.98;;;20.10;99.90;;;;;;5026967;28;20672;-85
2022/05/11 06:32:24;;;;;;;13.10;10.50;;;19.90;99.90;;;;;;5042627;28;20210;-84
2022/05/11 06:34:51;;;;;;;12.00;10.20;;;19.80;99.90;;;;;;5042342;28;20517;-84
2022/05/11 06:37:18;;;;;;;11.10;10.00;;;19.90;99.90;;;;;;5042500;28;20183;-85
2022/05/11 06:39:43;;;;;;;11.05;9.90;;;19.90;99.90;;;;;;5043284;28;20182;-85
2022/05/11 06:42:12;;;;;;;11.32;10.13;;;20.00;99.90;;;;;;5025987;28;20211;-82
2022/05/11 06:44:37;;;;;;;12.50;10.23;;;20.20;99.90;;;;;;5041230;28;20684;-82
2022/05/11 06:47:04;;;;;;;11.85;10.38;;;20.20;99.90;;;;;;5041928;28;20219;-86
2022/05/11 06:49:30;;;;;;;12.50;10.35;;;20.10;99.90;;;;;;5041691;28;20182;-84
2022/05/11 06:51:56;;;;;;;12.13;10.50;;;20.10;99.90;;;;;;5041735;28;20210;-85
2022/05/11 06:59:56;;;;;;;13.63;9.88;;;20.20;99.90;;;;;;5012455;28;20241;-85
2022/05/11 07:02:25;;;;;;;11.00;9.68;;;20.20;99.90;;;;;;5042688;28;20685;-87
2022/05/11 07:04:51;;;;;;;12.07;9.80;;;20.30;99.90;;;;;;5041915;28;20187;-86
2022/05/11 07:07:18;;;;;;;10.95;9.50;;;20.60;99.90;;;;;;5041199;28;20201;-86
2022/05/11 07:09:44;;;;;;;10.68;9.63;;;20.90;99.90;;;;;;5042821;28;20189;-83
2022/05/11 07:12:25;;;;;;;13.57;9.18;;;21.40;99.90;;;;;;5041843;28;20218;-84
2022/05/11 07:14:53;;;;;;;11.07;9.98;;;21.60;99.90;;;;;;5044267;28;20545;-83
2022/05/11 07:17:38;;;;;;;12.23;9.80;;;21.50;99.90;;;;;;5045481;28;20175;-82
2022/05/11 07:20:08;;;;;;;10.60;9.43;;;21.60;99.90;;;;;;5045454;28;20179;-87
2022/05/11 07:22:33;;;;;;;9.80;8.77;;;21.90;99.90;;;;;;5029756;28;21054;-83
2022/05/11 07:24:59;;;;;;;11.60;9.13;;;22.10;99.90;;;;;;5045873;28;20661;-82
2022/05/11 07:27:26;;;;;;;9.52;8.63;;;22.00;99.90;;;;;;5046005;28;20190;-83
2022/05/11 07:29:53;;;;;;;9.82;8.82;;;21.90;99.90;;;;;;5045987;28;20190;-85
2022/05/11 07:32:19;;;;;;;8.75;7.85;;;21.90;99.90;;;;;;5045574;28;20221;-85
2022/05/11 07:34:45;;;;;;;9.63;7.55;;;22.10;99.90;;;;;;5030377;28;20270;-82
2022/05/11 07:37:11;;;;;;;8.05;7.25;;;22.10;99.90;;;;;;5047765;28;20195;-82
2022/05/11 07:39:37;;;;;;;7.40;6.43;;;22.30;99.90;;;;;;5045310;28;20187;-84
2022/05/11 07:42:03;;;;;;;7.93;7.07;;;22.70;99.90;;;;;;5029310;28;20182;-86
2022/05/11 07:44:28;;;;;;;7.03;6.32;;;23.10;99.90;;;;;;5045618;28;20468;-83
2022/05/11 07:46:54;;;;;;;6.40;5.75;;;23.30;99.90;;;;;;5044379;28;20193;-83
2022/05/11 07:49:20;;;;;;;6.85;6.15;;;23.40;99.90;;;;;;5044339;28;20183;-85
2022/05/11 07:51:46;;;;;;;6.88;5.93;;;23.60;99.90;;;;;;5044623;28;20207;-85
2022/05/11 07:54:13;;;;;;;7.00;6.28;;;23.60;99.90;;;;;;5044893;28;20243;-86
2022/05/11 08:02:08;;;;;;;5.80;5.28;;;23.90;99.90;;;;;;5029516;28;20731;-87
2022/05/11 08:04:35;;;;;;;5.85;5.35;;;24.20;99.90;;;;;;5046203;28;20223;-83
2022/05/11 08:07:00;;;;;;;6.18;5.50;;;24.30;99.90;;;;;;5044224;28;20194;-84
2022/05/11 08:09:26;;;;;;;5.95;5.28;;;24.30;99.90;;;;;;5045420;28;20841;-87
2022/05/11 08:11:55;;;;;;;5.30;4.90;;;24.30;99.90;;;;;;5029069;28;20206;-86
2022/05/11 08:14:21;;;;;;;5.10;4.70;;;24.60;99.90;;;;;;5028401;28;20241;-84
2022/05/11 08:16:52;;;;;;;9.40;5.38;;;24.70;99.90;;;;;;5041760;28;20669;-85
2022/05/11 08:19:19;;;;;;;6.10;4.57;;;24.90;99.90;;;;;;5042135;28;20249;-85
2022/05/11 08:21:46;;;;;;;7.15;4.80;;;25.10;99.90;;;;;;5025896;28;20190;-83
2022/05/11 08:24:13;;;;;;;5.43;4.93;;;25.30;99.90;;;;;;5041889;28;20228;-84
2022/05/11 08:26:40;;;;;;;4.80;4.25;;;25.30;99.90;;;;;;5040463;28;20278;-82
2022/05/11 08:29:06;;;;;;;5.45;4.95;;;25.00;99.90;;;;;;5041043;28;20180;-83
2022/05/11 08:34:17;;;;;;;5.25;4.75;;;25.00;99.90;;;;;;5026319;28;20185;-83
2022/05/11 08:36:42;;;;;;;4.75;4.35;;;25.00;99.90;;;;;;5025533;28;20548;-86
2022/05/11 08:39:08;;;;;;;6.60;4.40;;;24.90;99.90;;;;;;5026199;28;20179;-84
2022/05/11 08:41:52;;;;;;;4.75;4.25;;;25.00;99.90;;;;;;5043049;28;20171;-87
2022/05/11 08:44:27;;;;;;;4.25;3.60;;;25.10;99.90;;;;;;5026549;28;20183;-84
2022/05/11 08:47:11;;;;;;;3.67;3.38;;;25.30;99.90;;;;;;5041484;28;20422;-84
2022/05/11 08:50:10;;;;;;;3.50;3.20;;;25.20;99.90;;;;;;5041491;28;20183;-84
2022/05/11 08:52:48;;;;;;;4.00;3.60;;;24.90;99.90;;;;;;5025978;28;20644;-82
2022/05/11 08:55:39;;;;;;;4.07;3.10;;;24.60;99.90;;;;;;5040384;28;20183;-83
2022/05/11 08:58:34;;;;;;;4.00;3.30;;;24.40;99.90;;;;;;5040299;28;20175;-82
2022/05/11 09:01:01;;;;;;;4.20;3.40;;;24.20;99.90;;;;;;5024582;28;20187;-82
2022/05/11 09:03:38;;;;;;;3.10;2.90;;;23.90;99.90;;;;;;5026469;28;20210;-85
2022/05/11 09:06:16;;;;;;;3.47;3.17;;;23.90;99.90;;;;;;5040095;28;20257;-85
2022/05/11 09:08:42;;;;;;;3.67;3.38;;;24.10;99.90;;;;;;5040380;28;20187;-82
2022/05/11 09:11:12;;;;;;;3.63;3.28;;;24.20;99.90;;;;;;5025794;28;20669;-85
2022/05/11 09:13:40;;;;;;;3.45;3.15;;;24.40;99.90;;;;;;5039738;28;20241;-82
2022/05/11 09:16:35;;;;;;;3.30;2.97;;;24.50;99.90;;;;;;5026682;28;20221;-82
2022/05/11 09:19:13;;;;;;;6.60;3.60;;;24.50;99.90;;;;;;5040819;28;20175;-84
2022/05/11 09:21:41;;;;;;;3.40;3.10;;;24.60;99.90;;;;;;5040503;28;20217;-82
2022/05/11 09:24:18;;;;;;;3.45;3.20;;;24.80;99.90;;;;;;5025005;28;20450;-84
2022/05/11 09:26:46;;;;;;;5.40;3.20;;;24.80;99.90;;;;;;5040568;28;20679;-86
2022/05/11 09:29:31;;;;;;;3.70;3.00;;;25.10;99.90;;;;;;5040134;28;20665;-84
2022/05/11 09:32:21;;;;;;;3.88;3.30;;;24.90;99.90;;;;;;5039927;28;20209;-84
2022/05/11 09:34:47;;;;;;;5.53;3.45;;;24.90;99.90;;;;;;5041722;28;20182;-82
2022/05/11 09:37:30;;;;;;;3.10;2.90;;;25.20;99.90;;;;;;5039756;28;20187;-84
2022/05/11 09:40:03;;;;;;;3.00;2.80;;;25.20;99.90;;;;;;5040540;28;20175;-83
2022/05/11 09:42:30;;;;;;;3.33;3.05;;;25.10;99.90;;;;;;5040801;28;20738;-83
2022/05/11 09:44:56;;;;;;;4.80;3.13;;;25.20;99.90;;;;;;5040853;28;20274;-86
2022/05/11 09:47:28;;;;;;;3.75;3.22;;;25.50;99.90;;;;;;5027498;28;20727;-80
2022/05/11 09:50:17;;;;;;;5.80;3.00;;;25.70;99.90;;;;;;5027895;28;20656;-85
2022/05/11 09:52:44;;;;;;;6.15;3.13;;;25.70;98.60;;;;;;5042739;28;20712;-83
2022/05/11 09:55:19;;;;;;;3.50;3.10;;;25.60;97.70;;;;;;5042566;28;20618;-87
2022/05/11 09:58:00;;;;;;;5.00;2.85;;;25.70;96.90;;;;;;5027988;28;20210;-81
2022/05/11 10:00:34;;;;;;;6.45;2.50;;;25.70;98.00;;;;;;5043475;28;20245;-84
2022/05/11 10:03:04;;;;;;;4.18;2.85;;;25.60;97.50;;;;;;5044383;28;20211;-85
2022/05/11 10:05:41;;;;;;;3.28;2.97;;;25.70;97.20;;;;;;5045008;28;20217;-84
2022/05/11 10:08:22;;;;;;;3.38;2.75;;;25.70;94.90;;;;;;5040041;28;20186;-81
2022/05/11 10:11:06;;;;;;;4.82;2.80;;;25.70;94.90;;;;;;5026323;28;20213;-81
2022/05/11 10:14:02;;;;;;;4.88;2.70;;;25.70;94.40;;;;;;5040769;28;20210;-85
2022/05/11 10:22:51;;;;;;;4.20;3.60;;;26.20;93.60;;;;;;5024117;28;20238;-83
2022/05/11 10:25:30;;;;;;;8.15;3.72;;;26.60;93.80;;;;;;5023871;28;20923;-84
2022/05/11 10:28:20;;;;;;;6.32;3.40;;;26.60;92.60;;;;;;5039019;28;20269;-83
2022/05/11 10:31:03;;;;;;;4.20;3.28;;;26.60;92.60;;;;;;5039493;28;20441;-84
2022/05/11 10:34:01;;;;;;;6.82;3.25;;;26.40;93.30;;;;;;5025672;28;20296;-86
2022/05/11 10:36:57;;;;;;;3.53;3.20;;;26.20;91.80;;;;;;5039986;28;20207;-83
2022/05/11 10:40:00;;;;;;;4.55;2.85;;;25.80;92.70;;;;;;5039875;28;20446;-85
2022/05/11 10:42:34;;;;;;;3.80;3.00;;;25.90;92.20;;;;;;5024276;28;20253;-83
2022/05/11 10:45:30;;;;;;;3.00;2.65;;;25.90;92.30;;;;;;5040104;28;20178;-83
2022/05/11 10:48:15;;;;;;;2.70;2.50;;;26.00;91.80;;;;;;5021645;28;20195;-86
2022/05/11 10:50:48;;;;;;;3.05;2.60;;;25.90;91.00;;;;;;5044259;28;20660;-82
2022/05/11 10:53:41;;;;;;;2.90;2.58;;;26.10;91.50;;;;;;5044085;28;20210;-85
2022/05/11 10:56:25;;;;;;;2.72;2.45;;;26.40;90.60;;;;;;5044275;28;20265;-83
2022/05/11 10:59:04;;;;;;;3.67;2.58;;;26.70;88.30;;;;;;5045112;28;20182;-85
2022/05/11 11:01:54;;;;;;;3.28;2.78;;;26.90;88.10;;;;;;5027534;28;20228;-84
2022/05/11 11:05:09;;;;;;;3.47;2.80;;;27.00;87.10;;;;;;5044336;28;20194;-83
2022/05/11 11:08:05;;;;;;;3.58;3.28;;;27.00;85.70;;;;;;5017503;28;20195;-84
2022/05/11 11:10:31;;;;;;;2.88;2.47;;;27.20;83.70;;;;;;5045283;28;20187;-86
2022/05/11 11:13:24;;;;;;;2.25;2.10;;;27.20;82.30;;;;;;5027192;28;20232;-82
2022/05/11 11:15:51;;;;;;;2.78;2.47;;;27.50;84.20;;;;;;5042117;28;20190;-83
2022/05/11 11:18:22;;;;;;;3.70;2.85;;;27.80;82.50;;;;;;5042215;28;20190;-84
2022/05/11 11:20:49;;;;;;;3.75;2.90;;;27.30;80.60;;;;;;5042320;28;20265;-84
2022/05/11 11:23:17;;;;;;;4.50;2.42;;;27.10;83.60;;;;;;5026421;28;20294;-85
2022/05/11 11:25:58;;;;;;;3.85;2.85;;;26.80;83.20;;;;;;5027091;28;20187;-84
2022/05/11 11:28:30;;;;;;;2.97;2.63;;;26.70;85.80;;;;;;5041767;28;20320;-82
2022/05/11 11:30:59;;;;;;;3.10;2.80;;;26.50;84.90;;;;;;5044775;28;20222;-86
2022/05/11 11:33:28;;;;;;;3.00;2.50;;;26.50;85.50;;;;;;5043001;28;20708;-83
2022/05/11 11:36:05;;;;;;;4.22;2.80;;;26.20;85.00;;;;;;5041677;28;20187;-83
2022/05/11 11:38:48;;;;;;;2.60;2.40;;;26.40;85.00;;;;;;5041795;28;20240;-83
2022/05/11 11:41:28;;;;;;;4.10;2.30;;;26.80;84.80;;;;;;5042752;28;20266;-83
2022/05/11 11:43:59;;;;;;;3.03;2.83;;;27.00;83.70;;;;;;5042443;28;20668;-83
2022/05/11 11:46:40;;;;;;;3.97;2.50;;;26.90;81.90;;;;;;5042521;28;20187;-82
2022/05/11 11:49:33;;;;;;;3.33;2.58;;;26.60;81.90;;;;;;5042157;28;20618;-83
2022/05/11 11:52:04;;;;;;;4.03;2.45;;;26.50;85.10;;;;;;5025695;28;20477;-86
2022/05/11 11:54:36;;;;;;;3.17;2.42;;;26.30;85.30;;;;;;5041836;28;20236;-84
2022/05/11 11:57:04;;;;;;;2.95;2.75;;;26.50;84.90;;;;;;5027321;28;20555;-84
2022/05/11 11:59:29;;;;;;;4.53;2.85;;;26.50;85.20;;;;;;5026298;28;20371;-85
2022/05/11 12:02:12;;;;;;;2.90;2.70;;;26.70;86.10;;;;;;5042032;28;20183;-84
2022/05/11 12:04:42;;;;;;;4.65;2.60;;;27.00;84.00;;;;;;5041516;28;20175;-85
2022/05/11 12:15:39;;;;;;;2.75;2.55;;;27.20;82.50;;;;;;5027276;28;20190;-82
2022/05/11 12:18:26;;;;;;;7.00;2.95;;;27.30;78.50;;;;;;5041400;28;20232;-85
2022/05/11 12:20:54;;;;;;;3.67;2.38;;;27.80;76.30;;;;;;5042140;28;20225;-84
2022/05/11 12:23:36;;;;;;;7.30;2.55;;;28.00;76.40;;;;;;5042460;28;20224;-85
2022/05/11 12:26:19;;;;;;;3.30;2.67;;;28.10;74.50;;;;;;5042525;28;20722;-84
2022/05/11 12:28:45;;;;;;;2.50;2.30;;;28.00;73.50;;;;;;5041737;28;20175;-84
2022/05/11 12:31:29;;;;;;;4.22;2.63;;;28.10;75.50;;;;;;5042386;28;20558;-87
2022/05/11 12:33:55;;;;;;;3.67;2.70;;;28.20;72.40;;;;;;5042040;28;20368;-81
